createdAt,value
2023-09-17T00:01:20.596Z,101331.69
2023-09-17T00:03:47.504Z,101323.81
2023-09-17T00:06:15.648Z,101328.16
2023-09-17T00:08:42.390Z,101327.78
2023-09-17T00:11:09.791Z,101323.22
2023-09-17T00:13:36.904Z,101327.22
2023-09-17T00:16:03.796Z,101332.84
2023-09-17T00:18:30.648Z,101328.72
2023-09-17T00:20:57.666Z,101325.41
2023-09-17T00:23:25.992Z,101323.53
2023-09-17T00:25:53.071Z,101327.56
2023-09-17T00:28:19.855Z,101321.56
2023-09-17T00:30:46.653Z,101319.91
2023-09-17T00:33:13.650Z,101329.03
2023-09-17T00:35:40.345Z,101330.31
2023-09-17T00:38:07.154Z,101334.88
2023-09-17T00:40:38.560Z,101327.84
2023-09-17T00:43:05.447Z,101326.19
2023-09-17T00:45:33.188Z,101333.69
2023-09-17T00:48:02.613Z,101329.81
2023-09-17T00:50:29.608Z,101322.44
2023-09-17T00:52:56.386Z,101316.75
2023-09-17T00:55:23.258Z,101310.03
2023-09-17T00:57:51.548Z,101307.44
2023-09-17T01:00:22.444Z,101311.88
2023-09-17T01:02:49.916Z,101302.63
2023-09-17T01:05:17.384Z,101300.59
2023-09-17T01:07:45.566Z,101292.38
2023-09-17T01:10:12.657Z,101287.69
2023-09-17T01:12:40.018Z,101283.56
2023-09-17T01:15:11.309Z,101279.44
2023-09-17T01:17:38.544Z,101271.00
2023-09-17T01:20:29.918Z,101264.19
2023-09-17T01:23:00.428Z,101257.38
2023-09-17T01:25:43.688Z,101249.56
2023-09-17T01:28:13.532Z,101242.75
2023-09-17T01:30:43.253Z,101247.78
2023-09-17T01:33:13.050Z,101244.69
2023-09-17T01:35:49.188Z,101242.66
2023-09-17T01:38:20.006Z,101247.88
2023-09-17T01:40:49.761Z,101240.06
2023-09-17T01:43:21.617Z,101233.47
2023-09-17T01:45:48.964Z,101232.28
2023-09-17T01:48:17.255Z,101232.94
2023-09-17T01:50:45.184Z,101230.72
2023-09-17T01:53:14.956Z,101228.69
2023-09-17T01:55:43.341Z,101232.69
2023-09-17T01:58:11.487Z,101240.97
2023-09-17T02:00:40.236Z,101237.09
2023-09-17T02:03:07.267Z,101239.19
2023-09-17T02:05:34.143Z,101228.84
2023-09-17T02:08:00.946Z,101234.22
2023-09-17T02:10:27.740Z,101239.03
2023-09-17T02:12:54.496Z,101245.47
2023-09-17T02:15:21.482Z,101262.66
2023-09-17T02:17:51.998Z,101283.56
2023-09-17T02:20:19.289Z,101295.34
2023-09-17T02:22:46.855Z,101283.19
2023-09-17T02:25:13.789Z,101285.06
2023-09-17T02:27:41.796Z,101268.91
2023-09-17T02:30:09.943Z,101267.06
2023-09-17T02:32:38.828Z,101263.53
2023-09-17T02:35:09.512Z,101270.19
2023-09-17T02:37:36.943Z,101268.31
2023-09-17T02:40:05.795Z,101256.72
2023-09-17T02:42:32.557Z,101248.88
2023-09-17T02:44:59.382Z,101252.59
2023-09-17T02:47:27.910Z,101254.72
2023-09-17T02:49:54.775Z,101242.75
2023-09-17T02:52:23.226Z,101245.63
2023-09-17T02:54:50.089Z,101230.78
2023-09-17T02:57:17.293Z,101227.13
2023-09-17T02:59:44.120Z,101234.59
2023-09-17T03:02:10.900Z,101234.19
2023-09-17T03:04:37.781Z,101233.84
2023-09-17T03:07:05.563Z,101238.81
2023-09-17T03:09:35.175Z,101238.25
2023-09-17T03:12:02.935Z,101237.63
2023-09-17T03:14:29.702Z,101229.16
2023-09-17T03:16:56.757Z,101225.69
2023-09-17T03:19:23.866Z,101221.53
2023-09-17T03:21:50.577Z,101220.69
2023-09-17T03:24:18.169Z,101217.41
2023-09-17T03:26:46.240Z,101216.00
2023-09-17T03:29:13.838Z,101204.63
2023-09-17T03:31:42.407Z,101204.03
2023-09-17T03:34:09.232Z,101203.41
2023-09-17T03:36:36.659Z,101206.34
2023-09-17T03:39:06.860Z,101205.75
2023-09-17T03:41:34.064Z,101205.13
2023-09-17T03:44:02.282Z,101205.34
2023-09-17T03:46:31.450Z,101208.03
2023-09-17T03:48:58.373Z,101191.91
2023-09-17T03:51:25.318Z,101198.09
2023-09-17T03:53:52.564Z,101205.13
2023-09-17T03:56:19.627Z,101198.34
2023-09-17T03:58:46.589Z,101200.22
2023-09-17T04:01:15.140Z,101208.28
2023-09-17T04:03:42.178Z,101198.56
2023-09-17T04:06:09.099Z,101191.75
2023-09-17T04:08:36.273Z,101185.56
2023-09-17T04:11:05.424Z,101182.88
2023-09-17T04:13:33.267Z,101190.34
2023-09-17T04:16:00.092Z,101187.88
2023-09-17T04:18:28.252Z,101179.81
2023-09-17T04:20:54.988Z,101178.53
2023-09-17T04:23:21.884Z,101176.91
2023-09-17T04:25:48.859Z,101176.09
2023-09-17T04:28:15.630Z,101173.41
2023-09-17T04:30:42.308Z,101179.34
2023-09-17T04:33:09.157Z,101178.53
2023-09-17T04:35:37.822Z,101171.53
2023-09-17T04:38:05.420Z,101161.00
2023-09-17T04:40:32.379Z,101171.75
2023-09-17T04:42:59.094Z,101172.78
2023-09-17T04:45:35.198Z,101171.97
2023-09-17T04:48:02.214Z,101162.25
2023-09-17T04:50:29.576Z,101156.88
2023-09-17T04:52:57.947Z,101162.47
2023-09-17T04:55:26.399Z,101155.44
2023-09-17T04:57:53.610Z,101153.56
2023-09-17T05:00:21.596Z,101168.09
2023-09-17T05:02:52.201Z,101168.09
2023-09-17T05:05:24.076Z,101170.78
2023-09-17T05:07:53.766Z,101175.06
2023-09-17T05:10:22.482Z,101168.66
2023-09-17T05:12:49.597Z,101164.13
2023-09-17T05:15:16.460Z,101170.53
2023-09-17T05:17:43.512Z,101156.28
2023-09-17T05:20:12.444Z,101167.63
2023-09-17T05:22:39.354Z,101168.25
2023-09-17T05:25:09.430Z,101165.34
2023-09-17T05:27:38.309Z,101170.47
2023-09-17T05:30:06.709Z,101164.25
2023-09-17T05:32:33.565Z,101174.22
2023-09-17T05:35:07.199Z,101161.81
2023-09-17T05:37:33.911Z,101161.00
2023-09-17T05:40:00.851Z,101166.38
2023-09-17T05:42:27.661Z,101168.25
2023-09-17T05:44:55.733Z,101173.41
2023-09-17T05:47:22.565Z,101164.25
2023-09-17T05:49:49.598Z,101166.94
2023-09-17T05:52:17.604Z,101172.31
2023-09-17T05:54:44.339Z,101166.16
2023-09-17T05:57:11.287Z,101165.91
2023-09-17T05:59:38.094Z,101163.00
2023-09-17T06:02:06.526Z,101160.13
2023-09-17T06:04:33.594Z,101166.31
2023-09-17T06:07:00.260Z,101160.94
2023-09-17T06:09:27.120Z,101162.81
2023-09-17T06:11:53.927Z,101156.38
2023-09-17T06:14:20.837Z,101160.94
2023-09-17T06:16:57.592Z,101163.63
2023-09-17T06:19:28.479Z,101167.13
2023-09-17T06:21:55.278Z,101171.47
2023-09-17T06:24:22.220Z,101170.66
2023-09-17T06:26:48.969Z,101166.91
2023-09-17T06:29:15.772Z,101176.59
2023-09-17T06:31:43.071Z,101171.22
2023-09-17T06:34:10.812Z,101172.66
2023-09-17T06:36:39.369Z,101178.03
2023-09-17T06:39:07.552Z,101180.72
2023-09-17T06:41:37.441Z,101178.84
2023-09-17T06:44:05.745Z,101177.00
2023-09-17T06:46:33.242Z,101178.84
2023-09-17T06:49:00.252Z,101181.56
2023-09-17T06:51:27.147Z,101190.66
2023-09-17T06:53:55.250Z,101189.00
2023-09-17T06:56:25.014Z,101188.78
2023-09-17T06:58:51.982Z,101186.31
2023-09-17T07:01:19.466Z,101182.59
2023-09-17T07:03:46.228Z,101180.72
2023-09-17T07:06:13.012Z,101182.38
2023-09-17T07:08:40.000Z,101181.34
2023-09-17T07:11:08.110Z,101179.22
2023-09-17T07:13:35.316Z,101173.63
2023-09-17T07:16:02.179Z,101166.19
2023-09-17T07:18:31.598Z,101171.56
2023-09-17T07:20:58.684Z,101166.19
2023-09-17T07:23:26.725Z,101166.78
2023-09-17T07:25:53.575Z,101167.38
2023-09-17T07:28:22.213Z,101176.50
2023-09-17T07:30:55.076Z,101168.44
2023-09-17T07:33:22.006Z,101170.06
2023-09-17T07:35:49.503Z,101178.72
2023-09-17T07:38:17.384Z,101172.31
2023-09-17T07:40:44.509Z,101168.59
2023-09-17T07:43:12.130Z,101163.22
2023-09-17T07:45:40.283Z,101169.22
2023-09-17T07:48:07.513Z,101177.28
2023-09-17T07:50:34.354Z,101174.59
2023-09-17T07:53:01.164Z,101168.16
2023-09-17T07:55:28.025Z,101170.03
2023-09-17T07:57:56.053Z,101172.50
2023-09-17T08:00:22.941Z,101166.28
2023-09-17T08:02:51.680Z,101161.75
2023-09-17T08:05:19.058Z,101164.44
2023-09-17T08:07:46.920Z,101165.25
2023-09-17T08:10:14.132Z,101173.09
2023-09-17T08:12:40.892Z,101173.09
2023-09-17T08:15:09.115Z,101175.56
2023-09-17T08:17:36.080Z,101162.97
2023-09-17T08:20:05.919Z,101167.28
2023-09-17T08:22:33.779Z,101159.81
2023-09-17T08:25:00.686Z,101172.19
2023-09-17T08:27:27.577Z,101168.47
2023-09-17T08:29:54.307Z,101164.13
2023-09-17T08:32:21.069Z,101162.28
2023-09-17T08:34:48.028Z,101159.38
2023-09-17T08:37:17.173Z,101167.22
2023-09-17T08:39:43.873Z,101164.75
2023-09-17T08:42:11.859Z,101166.41
2023-09-17T08:44:39.670Z,101180.66
2023-09-17T08:47:06.626Z,101178.19
2023-09-17T08:49:33.583Z,101171.78
2023-09-17T08:52:05.280Z,101179.03
2023-09-17T08:54:39.014Z,101174.47
2023-09-17T08:57:07.328Z,101177.16
2023-09-17T08:59:38.702Z,101179.03
2023-09-17T09:02:09.277Z,101177.38
2023-09-17T09:04:37.905Z,101182.75
2023-09-17T09:07:07.175Z,101179.03
2023-09-17T09:09:37.411Z,101178.81
2023-09-17T09:12:05.246Z,101182.88
2023-09-17T09:14:32.240Z,101188.06
2023-09-17T09:17:01.591Z,101187.84
2023-09-17T09:19:28.353Z,101187.38
2023-09-17T09:21:55.550Z,101187.16
2023-09-17T09:24:24.424Z,101194.41
2023-09-17T09:26:53.354Z,101191.72
2023-09-17T09:29:21.591Z,101187.16
2023-09-17T09:31:48.589Z,101190.22
2023-09-17T09:34:15.477Z,101184.59
2023-09-17T09:36:45.803Z,101179.84
2023-09-17T09:39:16.230Z,101185.81
2023-09-17T09:41:43.730Z,101182.09
2023-09-17T09:44:11.822Z,101183.50
2023-09-17T09:46:38.587Z,101176.84
2023-09-17T09:49:06.057Z,101178.28
2023-09-17T09:51:37.099Z,101178.84
2023-09-17T09:54:04.845Z,101175.94
2023-09-17T09:56:32.363Z,101167.66
2023-09-17T09:59:00.589Z,101170.13
2023-09-17T10:01:29.722Z,101172.34
2023-09-17T10:04:00.113Z,101168.41
2023-09-17T10:06:27.445Z,101173.34
2023-09-17T10:08:55.042Z,101180.13
2023-09-17T10:11:22.643Z,101168.91
2023-09-17T10:13:49.835Z,101164.94
2023-09-17T10:16:17.155Z,101165.31
2023-09-17T10:18:46.493Z,101157.84
2023-09-17T10:21:15.780Z,101149.75
2023-09-17T10:23:43.301Z,101147.44
2023-09-17T10:26:11.470Z,101149.91
2023-09-17T10:28:39.616Z,101140.78
2023-09-17T10:31:09.252Z,101144.88
2023-09-17T10:33:37.623Z,101149.81
2023-09-17T10:36:09.110Z,101140.69
2023-09-17T10:38:37.109Z,101140.22
2023-09-17T10:41:06.474Z,101138.72
2023-09-17T10:43:36.246Z,101131.84
2023-09-17T10:46:04.736Z,101130.56
2023-09-17T10:48:33.119Z,101141.47
2023-09-17T10:51:00.698Z,101146.63
2023-09-17T10:53:29.451Z,101145.09
2023-09-17T10:56:01.937Z,101141.13
2023-09-17T10:58:34.590Z,101140.91
2023-09-17T11:01:02.673Z,101145.59
2023-09-17T11:03:34.787Z,101130.84
2023-09-17T11:06:07.341Z,101134.16
2023-09-17T11:08:35.886Z,101132.84
2023-09-17T11:11:04.983Z,101128.06
2023-09-17T11:13:31.960Z,101132.19
2023-09-17T11:16:01.120Z,101135.22
2023-09-17T11:18:27.885Z,101138.50
2023-09-17T11:21:01.994Z,101145.06
2023-09-17T11:23:43.433Z,101141.69
2023-09-17T11:26:12.985Z,101149.28
2023-09-17T11:28:46.479Z,101147.78
2023-09-17T11:31:16.239Z,101140.88
2023-09-17T11:33:43.816Z,101134.19
2023-09-17T11:36:11.454Z,101128.91
2023-09-17T11:38:46.533Z,101128.44
2023-09-17T11:41:19.514Z,101126.91
2023-09-17T11:43:49.929Z,101116.47
2023-09-17T11:46:17.782Z,101130.31
2023-09-17T11:48:45.969Z,101133.59
2023-09-17T11:51:23.960Z,101125.84
2023-09-17T11:53:58.503Z,101126.22
2023-09-17T11:56:28.251Z,101132.22
2023-09-17T11:59:04.082Z,101131.53
2023-09-17T12:01:35.217Z,101131.25
2023-09-17T12:04:06.345Z,101135.97
2023-09-17T12:06:37.031Z,101138.19
2023-09-17T12:09:17.380Z,101142.28
2023-09-17T12:11:47.716Z,101141.00
2023-09-17T12:14:15.257Z,101144.03
2023-09-17T12:16:42.417Z,101150.84
2023-09-17T12:19:17.803Z,101148.75
2023-09-17T12:21:47.158Z,101149.28
2023-09-17T12:24:26.376Z,101144.25
2023-09-17T12:27:07.832Z,101152.91
2023-09-17T12:29:35.236Z,101160.56
2023-09-17T12:32:03.785Z,101152.00
2023-09-17T12:34:31.079Z,101146.34
2023-09-17T12:36:57.940Z,101144.00
2023-09-17T12:39:26.310Z,101144.09
2023-09-17T12:41:53.719Z,101138.47
2023-09-17T12:44:20.703Z,101140.44
2023-09-17T12:46:48.754Z,101138.31
2023-09-17T12:49:15.753Z,101127.06
2023-09-17T12:51:42.637Z,101127.38
2023-09-17T12:54:10.196Z,101128.56
2023-09-17T12:56:39.391Z,101131.59
2023-09-17T12:59:06.400Z,101124.63
2023-09-17T13:01:33.418Z,101119.59
2023-09-17T13:04:05.856Z,101115.31
2023-09-17T13:06:36.126Z,101114.66
2023-09-17T13:09:03.701Z,101119.53
2023-09-17T13:11:31.217Z,101120.72
2023-09-17T13:14:01.003Z,101124.31
2023-09-17T13:16:27.899Z,101115.75
2023-09-17T13:18:56.367Z,101113.13
2023-09-17T13:21:23.458Z,101108.88
2023-09-17T13:23:50.490Z,101105.69
2023-09-17T13:26:17.506Z,101104.94
2023-09-17T13:28:44.437Z,101100.94
2023-09-17T13:31:12.602Z,101101.25
2023-09-17T13:33:40.036Z,101105.94
2023-09-17T13:36:10.446Z,101106.03
2023-09-17T13:38:41.980Z,101103.91
2023-09-17T13:41:09.201Z,101105.03
2023-09-17T13:43:36.201Z,101101.84
2023-09-17T13:46:03.874Z,101096.75
2023-09-17T13:48:32.096Z,101108.97
2023-09-17T13:50:59.195Z,101102.00
2023-09-17T13:53:26.036Z,101095.28
2023-09-17T13:55:53.029Z,101100.22
2023-09-17T13:58:19.887Z,101104.28
2023-09-17T14:00:46.590Z,101095.69
2023-09-17T14:03:15.892Z,101094.66
2023-09-17T14:05:45.033Z,101087.94
2023-09-17T14:08:12.790Z,101087.94
2023-09-17T14:10:42.438Z,101089.31
2023-09-17T14:13:09.789Z,101082.03
2023-09-17T14:15:37.976Z,101079.09
2023-09-17T14:18:04.996Z,101081.53
2023-09-17T14:20:32.019Z,101083.16
2023-09-17T14:23:01.500Z,101066.94
2023-09-17T14:25:28.314Z,101070.22
2023-09-17T14:27:55.079Z,101062.69
2023-09-17T14:30:24.478Z,101065.13
2023-09-17T14:32:55.527Z,101071.69
2023-09-17T14:35:22.287Z,101069.78
2023-09-17T14:37:49.597Z,101057.91
2023-09-17T14:40:18.065Z,101073.06
2023-09-17T14:42:44.912Z,101061.97
2023-09-17T14:45:11.690Z,101060.09
2023-09-17T14:47:40.444Z,101061.75
2023-09-17T14:50:09.734Z,101061.50
2023-09-17T14:52:37.337Z,101067.72
2023-09-17T14:55:05.471Z,101057.47
2023-09-17T14:57:37.026Z,101059.09
2023-09-17T15:00:06.235Z,101055.31
2023-09-17T15:02:33.462Z,101055.31
2023-09-17T15:05:02.436Z,101048.84
2023-09-17T15:07:29.385Z,101046.97
2023-09-17T15:09:56.199Z,101045.06
2023-09-17T15:12:22.935Z,101046.72
2023-09-17T15:14:51.614Z,101044.00
2023-09-17T15:17:19.457Z,101043.78
2023-09-17T15:19:46.406Z,101049.19
2023-09-17T15:22:13.355Z,101045.38
2023-09-17T15:24:40.198Z,101038.09
2023-09-17T15:27:06.971Z,101038.66
2023-09-17T15:29:33.678Z,101043.00
2023-09-17T15:32:02.165Z,101042.75
2023-09-17T15:34:29.678Z,101040.06
2023-09-17T15:36:56.560Z,101037.09
2023-09-17T15:39:25.661Z,101037.88
2023-09-17T15:41:53.576Z,101033.31
2023-09-17T15:44:22.648Z,101031.16
2023-09-17T15:46:49.614Z,101039.28
2023-09-17T15:49:17.863Z,101035.50
2023-09-17T15:51:44.660Z,101044.22
2023-09-17T15:54:11.608Z,101038.78
2023-09-17T15:56:38.469Z,101033.38
2023-09-17T15:59:05.606Z,101036.63
2023-09-17T16:01:32.480Z,101032.84
2023-09-17T16:03:59.411Z,101027.44
2023-09-17T16:06:27.815Z,101025.56
2023-09-17T16:08:55.148Z,101028.28
2023-09-17T16:11:22.054Z,101028.84
2023-09-17T16:13:48.912Z,101028.03
2023-09-17T16:16:15.760Z,101039.66
2023-09-17T16:18:43.187Z,101043.19
2023-09-17T16:21:11.989Z,101039.41
2023-09-17T16:23:41.528Z,101036.72
2023-09-17T16:26:08.366Z,101041.31
2023-09-17T16:28:36.229Z,101032.94
2023-09-17T16:31:03.186Z,101041.31
2023-09-17T16:33:30.027Z,101038.34
2023-09-17T16:35:56.842Z,101040.25
2023-09-17T16:38:23.642Z,101035.66
2023-09-17T16:40:51.973Z,101041.06
2023-09-17T16:43:18.840Z,101029.41
2023-09-17T16:45:46.307Z,101029.41
2023-09-17T16:48:13.472Z,101031.03
2023-09-17T16:50:40.176Z,101029.41
2023-09-17T16:53:07.985Z,101033.19
2023-09-17T16:55:37.391Z,101028.84
2023-09-17T16:58:07.068Z,101025.31
2023-09-17T17:00:34.061Z,101023.69
2023-09-17T17:03:00.969Z,101020.16
2023-09-17T17:05:27.990Z,101022.84
2023-09-17T17:07:55.076Z,101016.63
2023-09-17T17:10:21.974Z,101010.41
2023-09-17T17:12:48.667Z,101015.81
2023-09-17T17:15:16.784Z,101009.03
2023-09-17T17:17:43.617Z,101001.97
2023-09-17T17:20:11.193Z,101004.94
2023-09-17T17:22:45.197Z,101004.94
2023-09-17T17:25:12.439Z,100998.94
2023-09-17T17:27:39.305Z,100991.13
2023-09-17T17:30:10.691Z,100975.13
2023-09-17T17:32:41.980Z,100972.91
2023-09-17T17:35:09.626Z,100966.16
2023-09-17T17:37:36.819Z,100967.22
2023-09-17T17:40:04.003Z,100955.81
2023-09-17T17:42:30.834Z,100957.94
2023-09-17T17:44:57.707Z,100953.88
2023-09-17T17:47:24.934Z,100956.84
2023-09-17T17:49:55.120Z,100958.72
2023-09-17T17:52:22.171Z,100946.50
2023-09-17T17:54:49.273Z,100949.75
2023-09-17T17:57:16.596Z,100950.22
2023-09-17T17:59:43.417Z,100943.44
2023-09-17T18:02:10.499Z,100944.53
2023-09-17T18:04:38.311Z,100952.06
2023-09-17T18:07:06.475Z,100944.19
2023-09-17T18:09:33.323Z,100942.00
2023-09-17T18:12:01.075Z,100941.44
2023-09-17T18:14:27.863Z,100935.69
2023-09-17T18:16:55.348Z,100944.09
2023-09-17T18:19:22.152Z,100936.44
2023-09-17T18:21:49.623Z,100930.69
2023-09-17T18:24:17.867Z,100935.31
2023-09-17T18:26:45.171Z,100929.34
2023-09-17T18:29:12.236Z,100926.06
2023-09-17T18:31:39.165Z,100929.00
2023-09-17T18:34:06.016Z,100933.88
2023-09-17T18:36:35.637Z,100937.88
2023-09-17T18:39:02.616Z,100939.19
2023-09-17T18:41:30.832Z,100942.94
2023-09-17T18:43:57.869Z,100942.41
2023-09-17T18:46:25.542Z,100944.53
2023-09-17T18:48:52.313Z,100942.31
2023-09-17T18:51:21.542Z,100931.19
2023-09-17T18:53:48.512Z,100932.50
2023-09-17T18:56:16.028Z,100934.91
2023-09-17T18:58:44.181Z,100914.59
2023-09-17T19:01:11.199Z,100918.63
2023-09-17T19:03:38.293Z,100911.59
2023-09-17T19:06:06.680Z,100908.31
2023-09-17T19:08:36.210Z,100902.34
2023-09-17T19:11:04.549Z,100895.06
2023-09-17T19:13:31.440Z,100902.91
2023-09-17T19:15:59.558Z,100903.97
2023-09-17T19:18:26.434Z,100912.31
2023-09-17T19:21:06.921Z,100906.91
2023-09-17T19:23:33.671Z,100906.38
2023-09-17T19:26:00.591Z,100916.34
2023-09-17T19:28:27.356Z,100913.91
2023-09-17T19:30:54.070Z,100910.13
2023-09-17T19:33:22.398Z,100904.41
2023-09-17T19:35:49.126Z,100909.22
2023-09-17T19:38:15.908Z,100908.91
2023-09-17T19:40:42.657Z,100899.69
2023-09-17T19:43:09.392Z,100892.06
2023-09-17T19:45:36.219Z,100893.66
2023-09-17T19:48:05.241Z,100893.31
2023-09-17T19:50:33.841Z,100891.91
2023-09-17T19:53:00.786Z,100893.00
2023-09-17T19:55:27.712Z,100892.44
2023-09-17T19:57:54.540Z,100892.44
2023-09-17T20:00:21.351Z,100888.31
2023-09-17T20:02:48.178Z,100887.72
2023-09-17T20:05:15.246Z,100883.66
2023-09-17T20:07:43.427Z,100875.47
2023-09-17T20:10:15.729Z,100873.03
2023-09-17T20:12:42.733Z,100869.75
2023-09-17T20:15:11.310Z,100862.69
2023-09-17T20:17:38.190Z,100855.66
2023-09-17T20:20:06.104Z,100855.66
2023-09-17T20:22:42.099Z,100856.25
2023-09-17T20:25:11.401Z,100858.94
2023-09-17T20:27:38.557Z,100866.81
2023-09-17T20:30:06.537Z,100857.06
2023-09-17T20:32:33.391Z,100859.75
2023-09-17T20:35:00.206Z,100856.81
2023-09-17T20:37:26.987Z,100858.47
2023-09-17T20:39:53.683Z,100861.16
2023-09-17T20:42:22.250Z,100857.66
2023-09-17T20:44:49.097Z,100866.56
2023-09-17T20:47:15.900Z,100873.84
2023-09-17T20:49:42.707Z,100880.88
2023-09-17T20:52:09.510Z,100876.53
2023-09-17T20:54:36.309Z,100880.31
2023-09-17T20:57:03.448Z,100875.97
2023-09-17T20:59:33.107Z,100875.97
2023-09-17T21:02:01.097Z,100872.69
2023-09-17T21:04:29.581Z,100874.56
2023-09-17T21:06:56.345Z,100866.47
2023-09-17T21:09:27.698Z,100869.16
2023-09-17T21:11:55.028Z,100865.66
2023-09-17T21:14:22.031Z,100854.03
2023-09-17T21:16:50.340Z,100856.72
2023-09-17T21:19:17.105Z,100852.41
2023-09-17T21:21:44.005Z,100843.75
2023-09-17T21:24:10.817Z,100836.72
2023-09-17T21:26:37.696Z,100846.19
2023-09-17T21:29:04.838Z,100836.47
2023-09-17T21:31:31.974Z,100838.94
2023-09-17T21:34:00.133Z,100829.72
2023-09-17T21:36:26.913Z,100821.63
2023-09-17T21:38:54.019Z,100828.94
2023-09-17T21:41:21.003Z,100835.41
2023-09-17T21:43:47.708Z,100830.81
2023-09-17T21:46:14.453Z,100822.16
2023-09-17T21:48:41.292Z,100808.91
2023-09-17T21:51:09.378Z,100810.53
2023-09-17T21:53:36.111Z,100809.13
2023-09-17T21:56:03.025Z,100804.81
2023-09-17T21:58:29.960Z,100804.81
2023-09-17T22:00:56.822Z,100799.41
2023-09-17T22:03:23.693Z,100791.59
2023-09-17T22:05:51.543Z,100779.16
2023-09-17T22:08:21.204Z,100781.28
2023-09-17T22:10:48.176Z,100785.03
2023-09-17T22:13:16.850Z,100782.56
2023-09-17T22:15:44.615Z,100773.41
2023-09-17T22:18:13.886Z,100776.13
2023-09-17T22:20:42.429Z,100763.13
2023-09-17T22:23:09.160Z,100757.16
2023-09-17T22:25:39.902Z,100753.06
2023-09-17T22:28:07.269Z,100757.91
2023-09-17T22:30:34.214Z,100739.50
2023-09-17T22:33:01.207Z,100739.75
2023-09-17T22:35:28.049Z,100737.88
2023-09-17T22:37:54.905Z,100731.66
2023-09-17T22:40:21.665Z,100720.88
2023-09-17T22:42:49.827Z,100720.06
2023-09-17T22:45:16.637Z,100719.00
2023-09-17T22:47:43.422Z,100711.72
2023-09-17T22:50:10.761Z,100707.13
2023-09-17T22:52:37.610Z,100704.44
2023-09-17T22:55:04.832Z,100709.84
2023-09-17T22:57:31.540Z,100711.47
2023-09-17T22:59:59.612Z,100709.59
2023-09-17T23:02:27.995Z,100699.63
2023-09-17T23:04:55.901Z,100696.09
2023-09-17T23:07:22.698Z,100695.03
2023-09-17T23:09:51.291Z,100686.13
2023-09-17T23:12:18.015Z,100684.25
2023-09-17T23:14:44.745Z,100676.97
2023-09-17T23:17:12.890Z,100671.56
2023-09-17T23:19:39.986Z,100658.34
2023-09-17T23:22:06.824Z,100645.66
2023-09-17T23:24:33.859Z,100638.38
2023-09-17T23:27:00.569Z,100634.28
2023-09-17T23:29:28.322Z,100638.88
2023-09-17T23:31:55.197Z,100625.38
2023-09-17T23:34:25.706Z,100616.47
2023-09-17T23:36:52.654Z,100614.84
2023-09-17T23:39:19.448Z,100603.78
2023-09-17T23:41:46.161Z,100604.63
2023-09-17T23:44:13.728Z,100598.97
2023-09-17T23:46:40.772Z,100595.47
2023-09-17T23:49:07.613Z,100586.31
2023-09-17T23:51:35.725Z,100585.25
2023-09-17T23:54:02.467Z,100580.66
2023-09-17T23:56:29.320Z,100572.56
2023-09-17T23:58:56.195Z,100566.59
